createdAt,value
2017-10-26T00:00:27.864Z,1018.3
2017-10-26T00:01:27.837Z,1018.33
2017-10-26T00:02:27.814Z,1018.32
2017-10-26T00:03:27.792Z,1018.31
2017-10-26T00:04:27.769Z,1018.31
2017-10-26T00:05:27.748Z,1018.33
2017-10-26T00:06:27.725Z,1018.34
2017-10-26T00:07:27.700Z,1018.33
2017-10-26T00:08:27.680Z,1018.32
2017-10-26T00:09:27.657Z,1018.29
2017-10-26T00:10:27.634Z,1018.27
2017-10-26T00:11:27.612Z,1018.26
2017-10-26T00:12:27.589Z,1018.23
2017-10-26T00:13:27.571Z,1018.22
2017-10-26T00:14:27.545Z,1018.19
2017-10-26T00:15:27.524Z,1018.18
2017-10-26T00:16:27.501Z,1018.21
2017-10-26T00:17:27.477Z,1018.23
2017-10-26T00:18:27.456Z,1018.2
2017-10-26T00:19:27.439Z,1018.18
2017-10-26T00:20:27.410Z,1018.21
2017-10-26T00:21:27.391Z,1018.17
2017-10-26T00:22:27.363Z,1018.22
2017-10-26T00:23:27.342Z,1018.21
2017-10-26T00:24:27.320Z,1018.28
2017-10-26T00:25:27.299Z,1018.25
2017-10-26T00:26:27.276Z,1018.25
2017-10-26T00:27:27.255Z,1018.3
2017-10-26T00:28:27.229Z,1018.29
2017-10-26T00:29:27.207Z,1018.3
2017-10-26T00:30:27.189Z,1018.33
2017-10-26T00:31:27.166Z,1018.28
2017-10-26T00:32:27.139Z,1018.26
2017-10-26T00:33:27.123Z,1018.25
2017-10-26T00:34:27.095Z,1018.31
2017-10-26T00:35:27.074Z,1018.31
2017-10-26T00:36:27.048Z,1018.38
2017-10-26T00:37:27.033Z,1018.38
2017-10-26T00:38:27.003Z,1018.41
2017-10-26T00:39:26.982Z,1018.43
2017-10-26T00:40:26.957Z,1018.37
2017-10-26T00:41:26.936Z,1018.32
2017-10-26T00:42:26.913Z,1018.38
2017-10-26T00:43:26.890Z,1018.31
2017-10-26T00:44:26.869Z,1018.31
2017-10-26T00:45:26.848Z,1018.27
2017-10-26T00:46:26.822Z,1018.27
2017-10-26T00:47:26.799Z,1018.23
2017-10-26T00:48:26.778Z,1018.28
2017-10-26T00:49:26.755Z,1018.26
2017-10-26T00:50:26.733Z,1018.28
2017-10-26T00:51:26.712Z,1018.28
2017-10-26T00:52:26.686Z,1018.31
2017-10-26T00:53:26.665Z,1018.39
2017-10-26T00:54:26.645Z,1018.32
2017-10-26T00:55:26.618Z,1018.33
2017-10-26T00:56:26.598Z,1018.29
2017-10-26T00:57:26.572Z,1018.29
2017-10-26T00:58:26.556Z,1018.35
2017-10-26T00:59:26.527Z,1018.35
2017-10-26T01:00:26.507Z,1018.33
2017-10-26T01:01:26.484Z,1018.32
2017-10-26T01:02:26.468Z,1018.32
2017-10-26T01:03:26.440Z,1018.28
2017-10-26T01:04:26.418Z,1018.24
2017-10-26T01:05:26.394Z,1018.25
2017-10-26T01:06:26.371Z,1018.28
2017-10-26T01:07:26.348Z,1018.22
2017-10-26T01:08:26.326Z,1018.21
2017-10-26T01:09:26.306Z,1018.21
2017-10-26T01:10:26.283Z,1018.15
2017-10-26T01:11:26.264Z,1018.23
2017-10-26T01:12:26.237Z,1018.25
2017-10-26T01:13:26.213Z,1018.27
2017-10-26T01:14:26.194Z,1018.25
2017-10-26T01:15:26.169Z,1018.31
2017-10-26T01:16:26.145Z,1018.28
2017-10-26T01:17:26.123Z,1018.29
2017-10-26T01:18:26.103Z,1018.31
2017-10-26T01:19:26.078Z,1018.27
2017-10-26T01:20:26.059Z,1018.27
2017-10-26T01:21:26.046Z,1018.21
2017-10-26T01:22:26.010Z,1018.24
2017-10-26T01:23:25.988Z,1018.24
2017-10-26T01:24:25.966Z,1018.21
2017-10-26T01:25:25.942Z,1018.2
2017-10-26T01:26:25.919Z,1018.17
2017-10-26T01:27:25.896Z,1018.17
2017-10-26T01:28:25.879Z,1018.16
2017-10-26T01:29:25.853Z,1018.16
2017-10-26T01:30:25.834Z,1018.16
2017-10-26T01:31:25.806Z,1018.17
2017-10-26T01:32:25.796Z,1018.15
2017-10-26T01:33:25.763Z,1018.18
2017-10-26T01:34:25.740Z,1018.26
2017-10-26T01:35:25.716Z,1018.19
2017-10-26T01:36:25.696Z,1018.22
2017-10-26T01:37:25.675Z,1018.2
2017-10-26T01:38:25.650Z,1018.24
2017-10-26T01:39:25.628Z,1018.24
2017-10-26T01:40:25.610Z,1018.21
2017-10-26T01:41:25.581Z,1018.2
2017-10-26T01:42:25.558Z,1018.17
2017-10-26T01:43:25.537Z,1018.22
2017-10-26T01:44:25.517Z,1018.19
2017-10-26T01:45:25.489Z,1018.23
2017-10-26T01:46:25.468Z,1018.29
2017-10-26T01:47:25.446Z,1018.28
2017-10-26T01:48:25.420Z,1018.29
2017-10-26T01:49:25.399Z,1018.3
2017-10-26T01:50:25.378Z,1018.3
2017-10-26T01:51:25.355Z,1018.29
2017-10-26T01:52:25.331Z,1018.25
2017-10-26T01:53:25.310Z,1018.26
2017-10-26T01:54:25.287Z,1018.24
2017-10-26T01:55:25.268Z,1018.19
2017-10-26T01:56:25.250Z,1018.21
2017-10-26T01:57:25.219Z,1018.16
2017-10-26T01:58:25.196Z,1018.05
2017-10-26T01:59:25.182Z,1017.99
2017-10-26T02:00:25.152Z,1017.92
2017-10-26T02:01:25.130Z,1017.88
2017-10-26T02:02:25.108Z,1017.86
2017-10-26T02:03:25.085Z,1017.8
2017-10-26T02:04:25.070Z,1017.87
2017-10-26T02:05:25.038Z,1017.91
2017-10-26T02:06:25.015Z,1018
2017-10-26T02:07:24.994Z,1018.08
2017-10-26T02:08:24.970Z,1018.11
2017-10-26T02:09:24.947Z,1018.11
2017-10-26T02:10:24.926Z,1018.11
2017-10-26T02:11:24.902Z,1018.13
2017-10-26T02:12:24.881Z,1018.11
2017-10-26T02:13:24.857Z,1018.11
2017-10-26T02:14:24.834Z,1018.13
2017-10-26T02:15:24.814Z,1018.09
2017-10-26T02:16:24.789Z,1018.13
2017-10-26T02:17:24.769Z,1018.18
2017-10-26T02:18:24.743Z,1018.2
2017-10-26T02:19:24.722Z,1018.2
2017-10-26T02:20:24.702Z,1018.22
2017-10-26T02:21:24.676Z,1018.2
2017-10-26T02:22:24.655Z,1018.21
2017-10-26T02:23:24.632Z,1018.16
2017-10-26T02:24:24.612Z,1018.06
2017-10-26T02:25:24.593Z,1018.06
2017-10-26T02:26:24.568Z,1018.05
2017-10-26T02:27:24.543Z,1018.06
2017-10-26T02:28:24.527Z,1018.12
2017-10-26T02:29:24.496Z,1018.02
2017-10-26T02:30:24.476Z,1017.98
2017-10-26T02:31:24.453Z,1017.99
2017-10-26T02:32:24.431Z,1017.94
2017-10-26T02:33:24.408Z,1017.93
2017-10-26T02:34:24.385Z,1017.89
2017-10-26T02:35:24.362Z,1017.88
2017-10-26T02:36:24.340Z,1017.9
2017-10-26T02:37:24.316Z,1017.88
2017-10-26T02:38:24.308Z,1017.9
2017-10-26T02:39:24.265Z,1017.9
2017-10-26T02:40:24.249Z,1017.9
2017-10-26T02:41:24.226Z,1017.87
2017-10-26T02:42:24.203Z,1017.9
2017-10-26T02:43:24.182Z,1017.95
2017-10-26T02:44:24.161Z,1017.88
2017-10-26T02:45:24.137Z,1017.92
2017-10-26T02:46:24.114Z,1017.88
2017-10-26T02:47:24.090Z,1017.93
2017-10-26T02:48:24.070Z,1017.92
2017-10-26T02:49:24.055Z,1017.91
2017-10-26T02:50:24.023Z,1017.97
2017-10-26T02:51:23.999Z,1017.98
2017-10-26T02:52:23.978Z,1017.95
2017-10-26T02:53:23.956Z,1017.93
2017-10-26T02:54:23.932Z,1017.87
2017-10-26T02:55:23.911Z,1017.92
2017-10-26T02:56:23.888Z,1017.86
2017-10-26T02:57:23.867Z,1017.88
2017-10-26T02:58:23.843Z,1017.86
2017-10-26T02:59:23.824Z,1017.9
2017-10-26T03:00:23.797Z,1017.84
2017-10-26T03:01:23.777Z,1017.82
2017-10-26T03:02:23.754Z,1017.82
2017-10-26T03:03:23.728Z,1017.8
2017-10-26T03:04:23.711Z,1017.82
2017-10-26T03:05:23.687Z,1017.85
2017-10-26T03:06:23.660Z,1017.79
2017-10-26T03:07:23.646Z,1017.8
2017-10-26T03:08:23.621Z,1017.81
2017-10-26T03:09:23.593Z,1017.76
2017-10-26T03:10:23.573Z,1017.75
2017-10-26T03:11:23.547Z,1017.76
2017-10-26T03:12:23.528Z,1017.75
2017-10-26T03:13:23.505Z,1017.8
2017-10-26T03:14:23.484Z,1017.8
2017-10-26T03:15:23.462Z,1017.78
2017-10-26T03:16:23.437Z,1017.79
2017-10-26T03:17:23.417Z,1017.79
2017-10-26T03:18:23.393Z,1017.89
2017-10-26T03:19:23.373Z,1017.91
2017-10-26T03:20:23.349Z,1018.01
2017-10-26T03:21:23.325Z,1018
2017-10-26T03:22:23.304Z,1018
2017-10-26T03:23:23.279Z,1017.99
2017-10-26T03:24:23.261Z,1017.97
2017-10-26T03:25:23.240Z,1017.96
2017-10-26T03:26:23.215Z,1017.96
2017-10-26T03:27:23.189Z,1017.96
2017-10-26T03:28:23.173Z,1018
2017-10-26T03:29:23.147Z,1017.97
2017-10-26T03:30:23.125Z,1018.01
2017-10-26T03:31:23.099Z,1018.05
2017-10-26T03:32:23.078Z,1018.04
2017-10-26T03:33:23.057Z,1018.04
2017-10-26T03:34:23.031Z,1018.04
2017-10-26T03:35:23.011Z,1018.06
2017-10-26T03:36:22.989Z,1018.04
2017-10-26T03:37:22.967Z,1018.06
2017-10-26T03:38:22.948Z,1018.07
2017-10-26T03:39:22.920Z,1018.03
2017-10-26T03:40:22.906Z,1018.03
2017-10-26T03:41:22.875Z,1018.05
2017-10-26T03:42:22.856Z,1018.11
2017-10-26T03:43:22.830Z,1018.11
2017-10-26T03:44:22.813Z,1018.16
2017-10-26T03:45:22.784Z,1018.18
2017-10-26T03:46:22.761Z,1018.12
2017-10-26T03:47:22.739Z,1018.13
2017-10-26T03:48:22.716Z,1018.17
2017-10-26T03:49:22.693Z,1018.18
2017-10-26T03:50:22.673Z,1018.16
2017-10-26T03:51:22.650Z,1018.15
2017-10-26T03:52:22.627Z,1018.11
2017-10-26T03:53:22.602Z,1018.04
2017-10-26T03:54:22.583Z,1018
2017-10-26T03:55:22.558Z,1018.01
2017-10-26T03:56:22.536Z,1018
2017-10-26T03:57:22.514Z,1017.96
2017-10-26T03:58:22.496Z,1018.03
2017-10-26T03:59:22.468Z,1018.04
2017-10-26T04:00:22.448Z,1018.02
2017-10-26T04:01:22.423Z,1018
2017-10-26T04:02:22.402Z,1018.03
2017-10-26T04:03:22.378Z,1018.04
2017-10-26T04:04:22.354Z,1017.96
2017-10-26T04:05:22.331Z,1018.01
2017-10-26T04:06:22.310Z,1017.91
2017-10-26T04:07:22.288Z,1017.95
2017-10-26T04:08:22.264Z,1017.93
2017-10-26T04:09:22.241Z,1017.93
2017-10-26T04:10:22.221Z,1017.93
2017-10-26T04:11:22.199Z,1017.94
2017-10-26T04:12:22.174Z,1017.92
2017-10-26T04:13:22.152Z,1017.95
2017-10-26T04:14:22.131Z,1017.95
2017-10-26T04:15:22.106Z,1018
2017-10-26T04:16:22.085Z,1018.05
2017-10-26T04:17:22.063Z,1017.98
2017-10-26T04:18:22.038Z,1017.97
2017-10-26T04:19:22.015Z,1017.96
2017-10-26T04:20:21.994Z,1017.9
2017-10-26T04:21:21.968Z,1017.87
2017-10-26T04:22:21.947Z,1017.85
2017-10-26T04:23:21.925Z,1017.86
2017-10-26T04:24:21.902Z,1017.88
2017-10-26T04:25:21.882Z,1017.91
2017-10-26T04:26:21.859Z,1017.91
2017-10-26T04:27:21.837Z,1017.87
2017-10-26T04:28:21.812Z,1017.88
2017-10-26T04:29:21.792Z,1017.89
2017-10-26T04:30:21.767Z,1017.88
2017-10-26T04:31:21.744Z,1017.86
2017-10-26T04:32:21.723Z,1017.82
2017-10-26T04:33:21.700Z,1017.83
2017-10-26T04:34:21.678Z,1017.81
2017-10-26T04:35:21.655Z,1017.81
2017-10-26T04:36:21.632Z,1017.8
2017-10-26T04:37:21.612Z,1017.81
2017-10-26T04:38:21.588Z,1017.8
2017-10-26T04:39:21.565Z,1017.8
2017-10-26T04:40:21.541Z,1017.82
2017-10-26T04:41:21.520Z,1017.81
2017-10-26T04:42:21.498Z,1017.8
2017-10-26T04:43:21.476Z,1017.8
2017-10-26T04:44:21.451Z,1017.84
2017-10-26T04:45:21.429Z,1017.84
2017-10-26T04:46:21.408Z,1017.83
2017-10-26T04:47:21.385Z,1017.81
2017-10-26T04:48:21.364Z,1017.84
2017-10-26T04:49:21.338Z,1017.84
2017-10-26T04:50:21.317Z,1017.88
2017-10-26T04:51:21.295Z,1017.84
2017-10-26T04:52:21.285Z,1017.84
2017-10-26T04:53:21.258Z,1017.81
2017-10-26T04:54:21.227Z,1017.79
2017-10-26T04:55:21.205Z,1017.85
2017-10-26T04:56:21.184Z,1017.86
2017-10-26T04:57:21.165Z,1017.86
2017-10-26T04:58:21.138Z,1017.86
2017-10-26T04:59:21.116Z,1017.82
2017-10-26T05:00:21.093Z,1017.83
2017-10-26T05:01:21.072Z,1017.83
2017-10-26T05:02:21.051Z,1017.85
2017-10-26T05:03:21.027Z,1017.86
2017-10-26T05:04:21.003Z,1017.87
2017-10-26T05:05:20.982Z,1017.88
2017-10-26T05:06:20.956Z,1017.87
2017-10-26T05:07:20.937Z,1017.89
2017-10-26T05:08:20.913Z,1017.83
2017-10-26T05:09:20.890Z,1017.82
2017-10-26T05:10:20.869Z,1017.79
2017-10-26T05:11:20.846Z,1017.75
2017-10-26T05:12:20.826Z,1017.72
2017-10-26T05:13:20.802Z,1017.82
2017-10-26T05:14:20.780Z,1017.78
2017-10-26T05:15:20.761Z,1017.77
2017-10-26T05:16:20.735Z,1017.74
2017-10-26T05:17:20.712Z,1017.77
2017-10-26T05:18:20.694Z,1017.78
2017-10-26T05:19:20.667Z,1017.79
2017-10-26T05:20:20.646Z,1017.77
2017-10-26T05:21:20.621Z,1017.85
2017-10-26T05:22:20.599Z,1017.84
2017-10-26T05:23:20.578Z,1017.88
2017-10-26T05:24:20.561Z,1017.87
2017-10-26T05:25:20.532Z,1017.87
2017-10-26T05:26:20.544Z,1017.82
2017-10-26T05:27:20.490Z,1017.8
2017-10-26T05:28:20.465Z,1017.82
2017-10-26T05:29:20.442Z,1017.82
2017-10-26T05:30:20.421Z,1017.83
2017-10-26T05:31:20.397Z,1017.84
2017-10-26T05:32:20.374Z,1017.77
2017-10-26T05:33:20.360Z,1017.76
2017-10-26T05:34:20.331Z,1017.72
2017-10-26T05:35:20.306Z,1017.72
2017-10-26T05:36:20.285Z,1017.67
2017-10-26T05:37:20.265Z,1017.64
2017-10-26T05:38:20.242Z,1017.62
2017-10-26T05:39:20.217Z,1017.61
2017-10-26T05:40:20.195Z,1017.58
2017-10-26T05:41:20.173Z,1017.55
2017-10-26T05:42:20.151Z,1017.51
2017-10-26T05:43:20.127Z,1017.49
2017-10-26T05:44:20.107Z,1017.52
2017-10-26T05:45:20.082Z,1017.55
2017-10-26T05:46:20.059Z,1017.51
2017-10-26T05:47:20.042Z,1017.49
2017-10-26T05:48:20.014Z,1017.51
2017-10-26T05:49:19.993Z,1017.5
2017-10-26T05:50:19.970Z,1017.53
2017-10-26T05:51:19.947Z,1017.55
2017-10-26T05:52:19.926Z,1017.57
2017-10-26T05:53:19.906Z,1017.59
2017-10-26T05:54:19.883Z,1017.62
2017-10-26T05:55:19.859Z,1017.59
2017-10-26T05:56:19.838Z,1017.58
2017-10-26T05:57:19.807Z,1017.55
2017-10-26T05:58:19.789Z,1017.57
2017-10-26T05:59:19.767Z,1017.54
2017-10-26T06:00:19.744Z,1017.55
2017-10-26T06:01:19.721Z,1017.55
2017-10-26T06:02:19.703Z,1017.57
2017-10-26T06:03:19.680Z,1017.52
2017-10-26T06:04:19.653Z,1017.51
2017-10-26T06:05:19.633Z,1017.51
2017-10-26T06:06:19.609Z,1017.52
2017-10-26T06:07:19.586Z,1017.48
2017-10-26T06:08:19.564Z,1017.5
2017-10-26T06:09:19.540Z,1017.47
2017-10-26T06:10:19.520Z,1017.49
2017-10-26T06:11:19.496Z,1017.54
2017-10-26T06:12:19.474Z,1017.57
2017-10-26T06:13:19.454Z,1017.56
2017-10-26T06:14:19.431Z,1017.56
2017-10-26T06:15:19.406Z,1017.54
2017-10-26T06:16:19.388Z,1017.52
2017-10-26T06:17:19.361Z,1017.52
2017-10-26T06:18:19.342Z,1017.59
2017-10-26T06:19:19.321Z,1017.58
2017-10-26T06:20:19.293Z,1017.58
2017-10-26T06:21:19.623Z,1017.61
2017-10-26T06:22:19.252Z,1017.59
2017-10-26T06:23:19.229Z,1017.57
2017-10-26T06:24:19.205Z,1017.56
2017-10-26T06:25:19.184Z,1017.53
2017-10-26T06:26:19.164Z,1017.59
2017-10-26T06:27:19.137Z,1017.64
2017-10-26T06:28:19.116Z,1017.65
2017-10-26T06:29:19.091Z,1017.66
2017-10-26T06:30:19.070Z,1017.71
2017-10-26T06:31:19.049Z,1017.67
2017-10-26T06:32:19.028Z,1017.69
2017-10-26T06:33:19.011Z,1017.68
2017-10-26T06:34:18.978Z,1017.67
2017-10-26T06:35:18.960Z,1017.7
2017-10-26T06:36:18.936Z,1017.73
2017-10-26T06:37:18.913Z,1017.68
2017-10-26T06:38:18.891Z,1017.71
2017-10-26T06:39:18.874Z,1017.68
2017-10-26T06:40:18.846Z,1017.66
2017-10-26T06:41:18.829Z,1017.65
2017-10-26T06:42:18.802Z,1017.64
2017-10-26T06:43:18.778Z,1017.63
2017-10-26T06:44:18.757Z,1017.7
2017-10-26T06:45:18.732Z,1017.77
2017-10-26T06:46:18.710Z,1017.83
2017-10-26T06:47:18.688Z,1017.9
2017-10-26T06:48:18.664Z,1017.94
2017-10-26T06:49:18.642Z,1017.94
2017-10-26T06:50:18.619Z,1018
2017-10-26T06:51:18.600Z,1018.01
2017-10-26T06:52:18.577Z,1018.06
2017-10-26T06:53:18.551Z,1018.09
2017-10-26T06:54:18.530Z,1018.16
2017-10-26T06:55:18.534Z,1018.18
2017-10-26T06:56:18.485Z,1018.24
2017-10-26T06:57:18.465Z,1018.22
2017-10-26T06:58:18.443Z,1018.22
2017-10-26T06:59:18.416Z,1018.15
2017-10-26T07:00:18.395Z,1018.12
2017-10-26T07:01:18.374Z,1018.17
2017-10-26T07:02:18.355Z,1018.23
2017-10-26T07:03:18.327Z,1018.2
2017-10-26T07:04:18.308Z,1018.22
2017-10-26T07:05:18.283Z,1018.21
2017-10-26T07:06:18.271Z,1018.23
2017-10-26T07:07:18.243Z,1018.2
2017-10-26T07:08:18.223Z,1018.2
2017-10-26T07:09:18.195Z,1018.15
2017-10-26T07:10:18.174Z,1018.14
2017-10-26T07:11:18.150Z,1018.11
2017-10-26T07:12:18.126Z,1018.15
2017-10-26T07:13:18.105Z,1018.15
2017-10-26T07:14:18.080Z,1018.18
2017-10-26T07:15:18.059Z,1018.21
2017-10-26T07:16:18.038Z,1018.18
2017-10-26T07:17:18.015Z,1018.11
2017-10-26T07:18:17.993Z,1018.1
2017-10-26T07:19:17.974Z,1018.09
2017-10-26T07:20:17.956Z,1018.13
2017-10-26T07:21:17.924Z,1018.16
2017-10-26T07:22:17.904Z,1018.14
2017-10-26T07:23:17.883Z,1018.13
2017-10-26T07:24:17.860Z,1018.08
2017-10-26T07:25:17.837Z,1018.11
2017-10-26T07:26:17.818Z,1018.09
2017-10-26T07:27:17.794Z,1018.04
2017-10-26T07:28:18.124Z,1018.04
2017-10-26T07:29:17.748Z,1018
2017-10-26T07:30:17.727Z,1018.01
2017-10-26T07:31:17.706Z,1018.07
2017-10-26T07:32:17.683Z,1018.05
2017-10-26T07:33:17.659Z,1018.08
2017-10-26T07:34:17.639Z,1018.04
2017-10-26T07:35:17.621Z,1018.05
2017-10-26T07:36:17.593Z,1018.05
2017-10-26T07:37:17.573Z,1018.01
2017-10-26T07:38:17.555Z,1018
2017-10-26T07:39:17.527Z,1017.98
2017-10-26T07:40:17.506Z,1017.99
2017-10-26T07:41:17.486Z,1017.91
2017-10-26T07:42:17.459Z,1017.9
2017-10-26T07:43:17.459Z,1017.85
2017-10-26T07:44:17.418Z,1017.83
2017-10-26T07:45:17.397Z,1017.84
2017-10-26T07:46:17.375Z,1017.84
2017-10-26T07:47:17.354Z,1017.92
2017-10-26T07:48:17.329Z,1017.92
2017-10-26T07:49:17.308Z,1017.92
2017-10-26T07:50:17.289Z,1017.89
2017-10-26T07:51:17.262Z,1017.89
2017-10-26T07:52:17.242Z,1017.91
2017-10-26T07:53:17.220Z,1017.94
2017-10-26T07:54:17.197Z,1017.9
2017-10-26T07:55:17.177Z,1017.94
2017-10-26T07:56:17.158Z,1017.9
2017-10-26T07:57:17.133Z,1017.87
2017-10-26T07:58:17.110Z,1017.94
2017-10-26T07:59:17.087Z,1017.99
2017-10-26T08:00:17.071Z,1017.91
2017-10-26T08:01:17.045Z,1017.92
2017-10-26T08:02:17.037Z,1017.98
2017-10-26T08:03:17.002Z,1018.01
2017-10-26T08:04:16.981Z,1018.05
2017-10-26T08:05:16.967Z,1018.09
2017-10-26T08:06:16.936Z,1017.97
2017-10-26T08:07:16.916Z,1017.96
2017-10-26T08:08:16.891Z,1017.91
2017-10-26T08:09:16.871Z,1017.96
2017-10-26T08:10:16.850Z,1018.01
2017-10-26T08:11:16.834Z,1017.98
2017-10-26T08:12:16.805Z,1018.01
2017-10-26T08:13:16.784Z,1017.96
2017-10-26T08:14:16.764Z,1018.01
2017-10-26T08:15:16.740Z,1018.02
2017-10-26T08:16:16.721Z,1018.01
2017-10-26T08:17:16.698Z,1017.99
2017-10-26T08:18:16.676Z,1017.93
2017-10-26T08:19:16.656Z,1017.91
2017-10-26T08:20:16.630Z,1017.89
2017-10-26T08:21:16.614Z,1017.88
2017-10-26T08:22:16.589Z,1017.89
2017-10-26T08:23:16.565Z,1017.91
2017-10-26T08:24:16.544Z,1017.89
2017-10-26T08:25:16.524Z,1017.92
2017-10-26T08:26:16.499Z,1017.89
2017-10-26T08:27:16.486Z,1017.88
2017-10-26T08:28:16.459Z,1017.85
2017-10-26T08:29:16.438Z,1017.84
2017-10-26T08:30:16.412Z,1017.79
2017-10-26T08:31:16.393Z,1017.73
2017-10-26T08:32:16.382Z,1017.71
2017-10-26T08:33:16.412Z,1017.72
2017-10-26T08:34:16.326Z,1017.71
2017-10-26T08:35:16.309Z,1017.73
2017-10-26T08:36:16.288Z,1017.71
2017-10-26T08:37:16.271Z,1017.74
2017-10-26T08:38:16.245Z,1017.73
2017-10-26T08:39:16.217Z,1017.72
2017-10-26T08:40:16.206Z,1017.74
2017-10-26T08:41:16.174Z,1017.71
2017-10-26T08:42:16.155Z,1017.69
2017-10-26T08:43:16.133Z,1017.71
2017-10-26T08:44:16.110Z,1017.72
2017-10-26T08:45:16.084Z,1017.79
2017-10-26T08:46:16.068Z,1017.8
2017-10-26T08:47:16.047Z,1017.84
2017-10-26T08:48:16.026Z,1017.85
2017-10-26T08:49:16.003Z,1017.84
2017-10-26T08:50:15.981Z,1017.78
2017-10-26T08:51:15.960Z,1017.81
2017-10-26T08:52:15.937Z,1017.77
2017-10-26T08:53:15.915Z,1017.69
2017-10-26T08:54:15.896Z,1017.72
2017-10-26T08:55:15.872Z,1017.71
2017-10-26T08:56:15.851Z,1017.69
2017-10-26T08:57:15.828Z,1017.69
2017-10-26T08:58:15.807Z,1017.68
2017-10-26T08:59:15.785Z,1017.63
2017-10-26T09:00:15.767Z,1017.69
2017-10-26T09:01:15.744Z,1017.66
2017-10-26T09:02:15.724Z,1017.69
2017-10-26T09:03:15.716Z,1017.78
2017-10-26T09:04:15.683Z,1017.75
2017-10-26T09:05:15.657Z,1017.82
2017-10-26T09:06:15.635Z,1017.83
2017-10-26T09:07:15.615Z,1017.8
2017-10-26T09:08:15.594Z,1017.87
2017-10-26T09:09:15.568Z,1017.81
2017-10-26T09:10:15.551Z,1017.85
2017-10-26T09:11:15.529Z,1017.9
2017-10-26T09:12:15.507Z,1017.9
2017-10-26T09:13:15.485Z,1017.89
2017-10-26T09:14:15.466Z,1017.89
2017-10-26T09:15:15.443Z,1017.89
2017-10-26T09:16:15.422Z,1017.91
2017-10-26T09:17:15.399Z,1017.91
2017-10-26T09:18:15.376Z,1017.93
2017-10-26T09:19:15.358Z,1017.94
2017-10-26T09:20:15.335Z,1017.9
2017-10-26T09:21:15.315Z,1017.9
2017-10-26T09:22:15.290Z,1017.94
2017-10-26T09:23:15.274Z,1017.9
2017-10-26T09:24:15.247Z,1017.98
2017-10-26T09:25:15.225Z,1017.95
2017-10-26T09:26:15.553Z,1017.97
2017-10-26T09:27:15.185Z,1017.91
2017-10-26T09:28:15.160Z,1017.85
2017-10-26T09:29:15.140Z,1017.8
2017-10-26T09:30:15.118Z,1017.79
2017-10-26T09:31:15.099Z,1017.79
2017-10-26T09:32:15.081Z,1017.78
2017-10-26T09:33:15.052Z,1017.77
2017-10-26T09:34:15.033Z,1017.77
2017-10-26T09:35:15.010Z,1017.78
2017-10-26T09:36:14.987Z,1017.83
2017-10-26T09:37:14.966Z,1017.83
2017-10-26T09:38:14.949Z,1017.78
2017-10-26T09:39:14.928Z,1017.79
2017-10-26T09:40:14.901Z,1017.77
2017-10-26T09:41:14.881Z,1017.83
2017-10-26T09:42:14.861Z,1017.85
2017-10-26T09:43:14.842Z,1017.87
2017-10-26T09:44:14.815Z,1017.89
2017-10-26T09:45:14.794Z,1017.91
2017-10-26T09:46:14.773Z,1017.91
2017-10-26T09:47:14.753Z,1017.87
2017-10-26T09:48:14.729Z,1017.85
2017-10-26T09:49:14.710Z,1017.89
2017-10-26T09:50:14.688Z,1017.89
2017-10-26T09:51:14.665Z,1017.91
2017-10-26T09:52:14.649Z,1017.87
2017-10-26T09:53:14.625Z,1017.88
2017-10-26T09:54:14.601Z,1017.91
2017-10-26T09:55:14.580Z,1017.89
2017-10-26T09:56:14.559Z,1017.9
2017-10-26T09:57:14.538Z,1017.84
2017-10-26T09:58:14.517Z,1017.87
2017-10-26T09:59:14.511Z,1017.87
2017-10-26T10:00:14.476Z,1017.81
2017-10-26T10:01:14.454Z,1017.8
2017-10-26T10:02:14.436Z,1017.8
2017-10-26T10:03:14.410Z,1017.86
2017-10-26T10:04:14.389Z,1017.84
2017-10-26T10:05:14.367Z,1017.86
2017-10-26T10:06:14.498Z,1017.87
2017-10-26T10:07:14.328Z,1017.89
2017-10-26T10:08:14.305Z,1017.84
2017-10-26T10:09:14.285Z,1017.88
2017-10-26T10:10:14.264Z,1017.88
2017-10-26T10:11:14.245Z,1017.95
2017-10-26T10:12:14.226Z,1017.98
2017-10-26T10:13:14.201Z,1017.94
2017-10-26T10:14:14.181Z,1018.04
2017-10-26T10:15:14.159Z,1018
2017-10-26T10:16:14.140Z,1017.96
2017-10-26T10:17:14.118Z,1018.02
2017-10-26T10:18:14.095Z,1017.96
2017-10-26T10:19:14.075Z,1017.9
2017-10-26T10:20:14.055Z,1017.92
2017-10-26T10:21:14.032Z,1017.9
2017-10-26T10:22:14.015Z,1017.87
2017-10-26T10:23:13.991Z,1017.84
2017-10-26T10:24:13.968Z,1017.86
2017-10-26T10:25:13.957Z,1017.93
2017-10-26T10:26:13.928Z,1017.93
2017-10-26T10:27:13.907Z,1017.95
2017-10-26T10:28:13.889Z,1017.95
2017-10-26T10:29:13.863Z,1017.96
2017-10-26T10:30:13.849Z,1017.98
2017-10-26T10:31:13.836Z,1017.97
2017-10-26T10:32:13.802Z,1017.96
2017-10-26T10:33:13.783Z,1017.97
2017-10-26T10:34:13.759Z,1017.98
2017-10-26T10:35:13.737Z,1017.97
2017-10-26T10:36:13.719Z,1017.99
2017-10-26T10:37:13.748Z,1017.91
2017-10-26T10:38:13.678Z,1017.88
2017-10-26T10:39:13.656Z,1017.86
2017-10-26T10:40:13.640Z,1017.86
2017-10-26T10:41:13.615Z,1017.91
2017-10-26T10:42:13.597Z,1017.91
2017-10-26T10:43:13.573Z,1017.9
2017-10-26T10:44:13.554Z,1017.85
2017-10-26T10:45:13.537Z,1017.79
2017-10-26T10:46:13.513Z,1017.77
2017-10-26T10:47:13.492Z,1017.78
2017-10-26T10:48:13.475Z,1017.74
2017-10-26T10:49:13.450Z,1017.74
2017-10-26T10:50:13.429Z,1017.72
2017-10-26T10:51:13.409Z,1017.67
2017-10-26T10:52:13.389Z,1017.7
2017-10-26T10:53:13.371Z,1017.71
2017-10-26T10:54:13.348Z,1017.66
2017-10-26T10:55:13.327Z,1017.71
2017-10-26T10:56:13.311Z,1017.64
2017-10-26T10:57:13.290Z,1017.65
2017-10-26T10:58:13.264Z,1017.58
2017-10-26T10:59:13.269Z,1017.59
2017-10-26T11:00:13.223Z,1017.6
2017-10-26T11:01:13.205Z,1017.6
2017-10-26T11:02:13.195Z,1017.65
2017-10-26T11:03:13.166Z,1017.6
2017-10-26T11:04:13.144Z,1017.55
2017-10-26T11:05:13.127Z,1017.61
2017-10-26T11:06:13.102Z,1017.55
2017-10-26T11:07:13.084Z,1017.55
2017-10-26T11:08:13.066Z,1017.54
2017-10-26T11:09:13.045Z,1017.51
2017-10-26T11:10:13.024Z,1017.47
2017-10-26T11:11:13.003Z,1017.45
2017-10-26T11:12:12.987Z,1017.45
2017-10-26T11:13:12.963Z,1017.47
2017-10-26T11:14:12.942Z,1017.42
2017-10-26T11:15:12.922Z,1017.46
2017-10-26T11:16:12.901Z,1017.48
2017-10-26T11:17:12.883Z,1017.43
2017-10-26T11:18:12.862Z,1017.42
2017-10-26T11:19:12.841Z,1017.41
2017-10-26T11:20:12.826Z,1017.43
2017-10-26T11:21:12.800Z,1017.41
2017-10-26T11:22:12.782Z,1017.38
2017-10-26T11:23:12.761Z,1017.4
2017-10-26T11:24:12.744Z,1017.39
2017-10-26T11:25:12.720Z,1017.39
2017-10-26T11:26:12.700Z,1017.39
2017-10-26T11:27:12.677Z,1017.35
2017-10-26T11:28:12.658Z,1017.31
2017-10-26T11:29:12.640Z,1017.25
2017-10-26T11:30:12.619Z,1017.17
2017-10-26T11:31:12.597Z,1017.24
2017-10-26T11:32:12.580Z,1017.28
2017-10-26T11:33:12.557Z,1017.25
2017-10-26T11:34:12.533Z,1017.3
2017-10-26T11:35:12.516Z,1017.29
2017-10-26T11:36:12.495Z,1017.34
2017-10-26T11:37:12.480Z,1017.24
2017-10-26T11:38:12.452Z,1017.3
2017-10-26T11:39:12.435Z,1017.31
2017-10-26T11:40:12.416Z,1017.31
2017-10-26T11:41:12.390Z,1017.27
2017-10-26T11:42:12.381Z,1017.29
2017-10-26T11:43:12.351Z,1017.25
2017-10-26T11:44:12.332Z,1017.26
2017-10-26T11:45:12.312Z,1017.25
2017-10-26T11:46:12.293Z,1017.25
2017-10-26T11:47:12.272Z,1017.29
2017-10-26T11:48:12.250Z,1017.29
2017-10-26T11:49:12.233Z,1017.35
2017-10-26T11:50:12.209Z,1017.34
2017-10-26T11:51:12.189Z,1017.39
2017-10-26T11:52:12.171Z,1017.42
2017-10-26T11:53:12.146Z,1017.38
2017-10-26T11:54:12.128Z,1017.39
2017-10-26T11:55:12.105Z,1017.36
2017-10-26T11:56:12.088Z,1017.34
2017-10-26T11:57:12.068Z,1017.37
2017-10-26T11:58:12.048Z,1017.34
2017-10-26T11:59:12.036Z,1017.31
2017-10-26T12:00:12.014Z,1017.28
2017-10-26T12:01:11.987Z,1017.29
2017-10-26T12:02:11.966Z,1017.25
2017-10-26T12:03:11.944Z,1017.19
2017-10-26T12:04:11.924Z,1017.14
2017-10-26T12:05:11.913Z,1017.13
2017-10-26T12:06:11.887Z,1017.09
2017-10-26T12:07:11.868Z,1017.15
2017-10-26T12:08:11.842Z,1017.14